createdAt,value
2023-01-03T00:25:28.890Z,4
2023-01-03T00:54:12.716Z,4
2023-01-03T01:22:51.962Z,4
2023-01-03T01:51:30.430Z,4
2023-01-03T02:20:11.047Z,3
2023-01-03T02:48:54.500Z,3
2023-01-03T03:17:41.010Z,3
2023-01-03T03:46:32.212Z,3
2023-01-03T04:15:22.948Z,3
2023-01-03T04:44:21.391Z,3
2023-01-03T05:13:17.379Z,3
2023-01-03T05:42:10.114Z,3
2023-01-03T06:11:09.443Z,3
2023-01-03T06:39:53.358Z,3
2023-01-03T07:08:48.282Z,3
2023-01-03T07:37:20.007Z,3
2023-01-03T08:06:09.290Z,3
2023-01-03T08:34:58.087Z,6
2023-01-03T09:03:50.590Z,6
2023-01-03T09:32:31.415Z,6
2023-01-03T10:01:13.426Z,6
2023-01-03T10:29:53.962Z,6
2023-01-03T10:58:47.016Z,15
2023-01-03T11:27:33.051Z,40
2023-01-03T11:56:13.390Z,29
2023-01-03T12:25:07.648Z,26
2023-01-03T12:53:59.444Z,26
2023-01-03T13:22:29.841Z,24
2023-01-03T13:51:25.838Z,22
2023-01-03T14:20:20.790Z,20
2023-01-03T14:49:12.298Z,15
2023-01-03T15:17:57.684Z,14
2023-01-03T15:46:48.841Z,14
2023-01-03T16:15:41.961Z,14
2023-01-03T16:44:31.035Z,13
2023-01-03T17:13:13.002Z,13
2023-01-03T17:41:40.116Z,12
2023-01-03T18:10:28.014Z,12
2023-01-03T18:39:19.702Z,11
2023-01-03T19:08:06.855Z,11
2023-01-03T19:36:53.303Z,12
2023-01-03T20:05:50.042Z,12
2023-01-03T20:34:46.384Z,13
2023-01-03T21:03:40.289Z,13
2023-01-03T21:32:30.487Z,13
2023-01-03T22:01:20.199Z,12
2023-01-03T22:29:58.391Z,12
2023-01-03T22:58:54.205Z,10
2023-01-03T23:27:43.945Z,10
2023-01-03T23:56:33.689Z,9
